sensor_id;sensor_type;location;lat;lon;timestamp;P1;durP1;ratioP1;P2;durP2;ratioP2
72439;SDS011;60446;50.752;4.352;2023-05-09T00:01:27;15.25;;;4.55;;
72439;SDS011;60446;50.752;4.352;2023-05-09T00:03:57;13.23;;;4.75;;
72439;SDS011;60446;50.752;4.352;2023-05-09T00:06:25;13.55;;;4.72;;
72439;SDS011;60446;50.752;4.352;2023-05-09T00:08:53;12.20;;;4.97;;
72439;SDS011;60446;50.752;4.352;2023-05-09T00:11:21;13.63;;;5.28;;
72439;SDS011;60446;50.752;4.352;2023-05-09T00:13:48;11.88;;;4.95;;
72439;SDS011;60446;50.752;4.352;2023-05-09T00:16:16;15.52;;;4.88;;
72439;SDS011;60446;50.752;4.352;2023-05-09T00:18:44;12.70;;;4.45;;
72439;SDS011;60446;50.752;4.352;2023-05-09T00:21:12;13.17;;;4.70;;
72439;SDS011;60446;50.752;4.352;2023-05-09T00:23:39;16.10;;;5.72;;
72439;SDS011;60446;50.752;4.352;2023-05-09T00:26:06;13.15;;;5.20;;
72439;SDS011;60446;50.752;4.352;2023-05-09T00:28:37;14.25;;;5.20;;
72439;SDS011;60446;50.752;4.352;2023-05-09T00:31:04;10.55;;;4.30;;
72439;SDS011;60446;50.752;4.352;2023-05-09T00:33:32;16.40;;;4.73;;
72439;SDS011;60446;50.752;4.352;2023-05-09T00:35:59;13.55;;;5.70;;
72439;SDS011;60446;50.752;4.352;2023-05-09T00:38:26;13.50;;;4.80;;
72439;SDS011;60446;50.752;4.352;2023-05-09T00:40:54;14.45;;;5.45;;
72439;SDS011;60446;50.752;4.352;2023-05-09T00:43:21;14.63;;;4.90;;
72439;SDS011;60446;50.752;4.352;2023-05-09T00:45:48;12.83;;;4.67;;
72439;SDS011;60446;50.752;4.352;2023-05-09T00:48:16;13.85;;;5.40;;
72439;SDS011;60446;50.752;4.352;2023-05-09T00:50:43;16.25;;;5.40;;
72439;SDS011;60446;50.752;4.352;2023-05-09T00:53:11;16.83;;;5.35;;
72439;SDS011;60446;50.752;4.352;2023-05-09T00:55:39;16.10;;;5.63;;
72439;SDS011;60446;50.752;4.352;2023-05-09T00:58:06;13.70;;;4.57;;
72439;SDS011;60446;50.752;4.352;2023-05-09T01:00:33;14.32;;;5.03;;
72439;SDS011;60446;50.752;4.352;2023-05-09T01:03:00;14.05;;;5.05;;
72439;SDS011;60446;50.752;4.352;2023-05-09T01:05:29;15.05;;;4.10;;
72439;SDS011;60446;50.752;4.352;2023-05-09T01:08:16;15.00;;;5.35;;
72439;SDS011;60446;50.752;4.352;2023-05-09T01:11:05;16.73;;;4.70;;
72439;SDS011;60446;50.752;4.352;2023-05-09T01:16:46;14.27;;;5.18;;
72439;SDS011;60446;50.752;4.352;2023-05-09T01:22:32;15.10;;;4.70;;
72439;SDS011;60446;50.752;4.352;2023-05-09T01:31:09;13.45;;;4.63;;
72439;SDS011;60446;50.752;4.352;2023-05-09T01:33:37;14.75;;;4.82;;
72439;SDS011;60446;50.752;4.352;2023-05-09T01:36:08;15.13;;;4.75;;
72439;SDS011;60446;50.752;4.352;2023-05-09T01:38:41;16.70;;;5.37;;
72439;SDS011;60446;50.752;4.352;2023-05-09T01:41:10;12.98;;;4.70;;
72439;SDS011;60446;50.752;4.352;2023-05-09T01:43:41;12.93;;;5.13;;
72439;SDS011;60446;50.752;4.352;2023-05-09T01:46:11;14.07;;;5.57;;
72439;SDS011;60446;50.752;4.352;2023-05-09T01:48:42;15.23;;;5.22;;
72439;SDS011;60446;50.752;4.352;2023-05-09T01:51:11;10.50;;;4.57;;
72439;SDS011;60446;50.752;4.352;2023-05-09T01:53:39;13.80;;;4.55;;
72439;SDS011;60446;50.752;4.352;2023-05-09T01:56:09;13.02;;;4.93;;
72439;SDS011;60446;50.752;4.352;2023-05-09T01:58:38;12.40;;;4.55;;
72439;SDS011;60446;50.752;4.352;2023-05-09T02:01:06;15.02;;;5.15;;
72439;SDS011;60446;50.752;4.352;2023-05-09T02:03:35;13.63;;;4.80;;
72439;SDS011;60446;50.752;4.352;2023-05-09T02:06:04;13.95;;;4.82;;
72439;SDS011;60446;50.752;4.352;2023-05-09T02:08:33;12.73;;;4.78;;
72439;SDS011;60446;50.752;4.352;2023-05-09T02:11:00;15.75;;;4.25;;
72439;SDS011;60446;50.752;4.352;2023-05-09T02:13:28;13.93;;;4.60;;
72439;SDS011;60446;50.752;4.352;2023-05-09T02:15:55;13.73;;;4.97;;
72439;SDS011;60446;50.752;4.352;2023-05-09T02:18:23;13.68;;;5.60;;
72439;SDS011;60446;50.752;4.352;2023-05-09T02:20:50;13.23;;;4.72;;
72439;SDS011;60446;50.752;4.352;2023-05-09T02:23:17;14.15;;;5.10;;
72439;SDS011;60446;50.752;4.352;2023-05-09T02:25:45;13.88;;;5.30;;
72439;SDS011;60446;50.752;4.352;2023-05-09T02:28:12;18.17;;;5.50;;
72439;SDS011;60446;50.752;4.352;2023-05-09T02:30:41;15.93;;;5.60;;
72439;SDS011;60446;50.752;4.352;2023-05-09T02:33:11;16.98;;;6.20;;
72439;SDS011;60446;50.752;4.352;2023-05-09T02:35:41;16.70;;;5.82;;
72439;SDS011;60446;50.752;4.352;2023-05-09T02:38:11;14.38;;;5.65;;
72439;SDS011;60446;50.752;4.352;2023-05-09T02:40:40;19.83;;;5.90;;
72439;SDS011;60446;50.752;4.352;2023-05-09T02:43:09;15.70;;;5.68;;
72439;SDS011;60446;50.752;4.352;2023-05-09T02:45:37;17.05;;;6.22;;
72439;SDS011;60446;50.752;4.352;2023-05-09T02:48:04;20.08;;;5.95;;
72439;SDS011;60446;50.752;4.352;2023-05-09T02:50:34;16.17;;;6.32;;
72439;SDS011;60446;50.752;4.352;2023-05-09T02:53:04;15.20;;;5.57;;
72439;SDS011;60446;50.752;4.352;2023-05-09T02:55:31;15.23;;;6.03;;
72439;SDS011;60446;50.752;4.352;2023-05-09T02:57:58;15.27;;;5.07;;
72439;SDS011;60446;50.752;4.352;2023-05-09T03:00:39;14.85;;;5.97;;
72439;SDS011;60446;50.752;4.352;2023-05-09T03:03:07;13.52;;;5.25;;
72439;SDS011;60446;50.752;4.352;2023-05-09T03:05:35;13.40;;;4.97;;
72439;SDS011;60446;50.752;4.352;2023-05-09T03:08:02;18.65;;;6.00;;
72439;SDS011;60446;50.752;4.352;2023-05-09T03:10:31;17.08;;;5.97;;
72439;SDS011;60446;50.752;4.352;2023-05-09T03:12:59;15.80;;;5.30;;
72439;SDS011;60446;50.752;4.352;2023-05-09T03:15:27;12.23;;;5.13;;
72439;SDS011;60446;50.752;4.352;2023-05-09T03:17:56;13.90;;;5.63;;
72439;SDS011;60446;50.752;4.352;2023-05-09T03:20:24;16.23;;;5.75;;
72439;SDS011;60446;50.752;4.352;2023-05-09T03:22:52;14.88;;;6.45;;
72439;SDS011;60446;50.752;4.352;2023-05-09T03:25:20;13.98;;;5.80;;
72439;SDS011;60446;50.752;4.352;2023-05-09T03:27:50;17.48;;;5.95;;
72439;SDS011;60446;50.752;4.352;2023-05-09T03:30:18;13.67;;;5.63;;
72439;SDS011;60446;50.752;4.352;2023-05-09T03:32:47;13.57;;;5.45;;
72439;SDS011;60446;50.752;4.352;2023-05-09T03:35:14;15.05;;;5.97;;
72439;SDS011;60446;50.752;4.352;2023-05-09T03:37:42;16.30;;;5.63;;
72439;SDS011;60446;50.752;4.352;2023-05-09T03:40:09;16.30;;;6.03;;
72439;SDS011;60446;50.752;4.352;2023-05-09T03:42:47;15.80;;;5.43;;
72439;SDS011;60446;50.752;4.352;2023-05-09T03:45:14;15.30;;;6.20;;
72439;SDS011;60446;50.752;4.352;2023-05-09T03:47:43;14.88;;;5.65;;
72439;SDS011;60446;50.752;4.352;2023-05-09T03:50:12;17.70;;;5.80;;
72439;SDS011;60446;50.752;4.352;2023-05-09T03:52:40;14.73;;;6.22;;
72439;SDS011;60446;50.752;4.352;2023-05-09T03:55:07;14.43;;;5.47;;
72439;SDS011;60446;50.752;4.352;2023-05-09T03:57:35;14.88;;;5.72;;
72439;SDS011;60446;50.752;4.352;2023-05-09T04:00:03;14.73;;;5.53;;
72439;SDS011;60446;50.752;4.352;2023-05-09T04:02:39;13.88;;;5.82;;
72439;SDS011;60446;50.752;4.352;2023-05-09T04:05:12;13.88;;;5.55;;
72439;SDS011;60446;50.752;4.352;2023-05-09T04:07:40;15.37;;;5.33;;
72439;SDS011;60446;50.752;4.352;2023-05-09T04:10:09;13.23;;;4.68;;
72439;SDS011;60446;50.752;4.352;2023-05-09T04:12:37;16.00;;;5.68;;
72439;SDS011;60446;50.752;4.352;2023-05-09T04:15:05;14.40;;;4.80;;
72439;SDS011;60446;50.752;4.352;2023-05-09T04:17:34;13.82;;;5.50;;
72439;SDS011;60446;50.752;4.352;2023-05-09T04:20:01;15.97;;;5.20;;
72439;SDS011;60446;50.752;4.352;2023-05-09T04:22:29;15.05;;;5.20;;
72439;SDS011;60446;50.752;4.352;2023-05-09T04:24:56;15.85;;;5.57;;
72439;SDS011;60446;50.752;4.352;2023-05-09T04:27:23;17.52;;;5.78;;
72439;SDS011;60446;50.752;4.352;2023-05-09T04:29:51;16.48;;;6.10;;
72439;SDS011;60446;50.752;4.352;2023-05-09T04:32:19;17.33;;;5.10;;
72439;SDS011;60446;50.752;4.352;2023-05-09T04:34:48;16.45;;;5.78;;
72439;SDS011;60446;50.752;4.352;2023-05-09T04:37:19;14.32;;;5.20;;
72439;SDS011;60446;50.752;4.352;2023-05-09T04:39:46;16.10;;;5.85;;
72439;SDS011;60446;50.752;4.352;2023-05-09T04:42:19;14.05;;;4.97;;
72439;SDS011;60446;50.752;4.352;2023-05-09T04:44:46;14.67;;;6.03;;
72439;SDS011;60446;50.752;4.352;2023-05-09T04:47:14;15.80;;;5.60;;
72439;SDS011;60446;50.752;4.352;2023-05-09T04:49:41;13.50;;;5.28;;
72439;SDS011;60446;50.752;4.352;2023-05-09T04:52:09;16.02;;;5.35;;
72439;SDS011;60446;50.752;4.352;2023-05-09T04:54:36;13.95;;;5.28;;
72439;SDS011;60446;50.752;4.352;2023-05-09T04:57:04;15.47;;;5.83;;
72439;SDS011;60446;50.752;4.352;2023-05-09T04:59:47;14.82;;;5.15;;
72439;SDS011;60446;50.752;4.352;2023-05-09T05:02:15;15.80;;;6.63;;
72439;SDS011;60446;50.752;4.352;2023-05-09T05:04:43;16.77;;;6.53;;
72439;SDS011;60446;50.752;4.352;2023-05-09T05:07:11;14.90;;;5.82;;
72439;SDS011;60446;50.752;4.352;2023-05-09T05:09:38;17.43;;;6.17;;
72439;SDS011;60446;50.752;4.352;2023-05-09T05:12:05;17.10;;;6.03;;
72439;SDS011;60446;50.752;4.352;2023-05-09T05:14:36;15.43;;;6.18;;
72439;SDS011;60446;50.752;4.352;2023-05-09T05:17:06;16.63;;;6.57;;
72439;SDS011;60446;50.752;4.352;2023-05-09T05:19:33;15.30;;;6.20;;
72439;SDS011;60446;50.752;4.352;2023-05-09T05:22:03;16.00;;;5.87;;
72439;SDS011;60446;50.752;4.352;2023-05-09T05:24:32;14.35;;;5.43;;
72439;SDS011;60446;50.752;4.352;2023-05-09T05:27:00;16.73;;;5.85;;
72439;SDS011;60446;50.752;4.352;2023-05-09T05:29:27;15.85;;;5.88;;
72439;SDS011;60446;50.752;4.352;2023-05-09T05:31:54;16.33;;;6.28;;
72439;SDS011;60446;50.752;4.352;2023-05-09T05:34:22;15.33;;;5.67;;
72439;SDS011;60446;50.752;4.352;2023-05-09T05:36:49;17.55;;;6.82;;
72439;SDS011;60446;50.752;4.352;2023-05-09T05:39:17;13.75;;;5.45;;
72439;SDS011;60446;50.752;4.352;2023-05-09T05:41:44;14.90;;;6.13;;
72439;SDS011;60446;50.752;4.352;2023-05-09T05:44:11;13.30;;;5.63;;
72439;SDS011;60446;50.752;4.352;2023-05-09T05:46:38;15.30;;;5.57;;
72439;SDS011;60446;50.752;4.352;2023-05-09T05:49:06;15.32;;;5.80;;
72439;SDS011;60446;50.752;4.352;2023-05-09T05:51:33;12.55;;;5.07;;
72439;SDS011;60446;50.752;4.352;2023-05-09T05:54:01;14.48;;;5.75;;
72439;SDS011;60446;50.752;4.352;2023-05-09T05:56:29;13.98;;;4.93;;
72439;SDS011;60446;50.752;4.352;2023-05-09T05:58:56;13.30;;;5.10;;
72439;SDS011;60446;50.752;4.352;2023-05-09T06:01:23;16.33;;;5.60;;
72439;SDS011;60446;50.752;4.352;2023-05-09T06:03:51;16.00;;;5.90;;
72439;SDS011;60446;50.752;4.352;2023-05-09T06:06:27;14.90;;;4.72;;
72439;SDS011;60446;50.752;4.352;2023-05-09T06:08:55;15.45;;;6.15;;
72439;SDS011;60446;50.752;4.352;2023-05-09T06:11:22;13.87;;;5.57;;
72439;SDS011;60446;50.752;4.352;2023-05-09T06:13:50;13.60;;;5.60;;
72439;SDS011;60446;50.752;4.352;2023-05-09T06:16:17;12.20;;;5.40;;
72439;SDS011;60446;50.752;4.352;2023-05-09T06:18:49;15.02;;;6.05;;
72439;SDS011;60446;50.752;4.352;2023-05-09T06:21:20;12.43;;;5.22;;
72439;SDS011;60446;50.752;4.352;2023-05-09T06:23:47;15.23;;;5.17;;
72439;SDS011;60446;50.752;4.352;2023-05-09T06:26:33;13.48;;;5.45;;
72439;SDS011;60446;50.752;4.352;2023-05-09T06:29:02;14.68;;;5.15;;
72439;SDS011;60446;50.752;4.352;2023-05-09T06:31:31;13.40;;;5.32;;
72439;SDS011;60446;50.752;4.352;2023-05-09T06:34:04;15.13;;;5.35;;
72439;SDS011;60446;50.752;4.352;2023-05-09T06:36:31;14.70;;;5.67;;
72439;SDS011;60446;50.752;4.352;2023-05-09T06:38:59;12.93;;;5.45;;
72439;SDS011;60446;50.752;4.352;2023-05-09T06:41:27;13.57;;;5.60;;
72439;SDS011;60446;50.752;4.352;2023-05-09T06:43:54;13.13;;;5.72;;
72439;SDS011;60446;50.752;4.352;2023-05-09T06:46:21;19.27;;;5.57;;
72439;SDS011;60446;50.752;4.352;2023-05-09T06:48:48;13.50;;;5.10;;
72439;SDS011;60446;50.752;4.352;2023-05-09T06:51:15;13.30;;;5.60;;
72439;SDS011;60446;50.752;4.352;2023-05-09T06:53:42;13.02;;;4.80;;
72439;SDS011;60446;50.752;4.352;2023-05-09T06:56:10;11.27;;;4.88;;
72439;SDS011;60446;50.752;4.352;2023-05-09T06:58:37;13.65;;;5.28;;
72439;SDS011;60446;50.752;4.352;2023-05-09T07:01:04;14.47;;;5.07;;
72439;SDS011;60446;50.752;4.352;2023-05-09T07:03:32;12.50;;;5.00;;
72439;SDS011;60446;50.752;4.352;2023-05-09T07:05:59;12.75;;;5.22;;
72439;SDS011;60446;50.752;4.352;2023-05-09T07:08:27;13.20;;;5.53;;
72439;SDS011;60446;50.752;4.352;2023-05-09T07:10:54;13.75;;;5.50;;
72439;SDS011;60446;50.752;4.352;2023-05-09T07:13:24;11.03;;;4.70;;
72439;SDS011;60446;50.752;4.352;2023-05-09T07:15:51;13.27;;;5.03;;
72439;SDS011;60446;50.752;4.352;2023-05-09T07:18:18;12.05;;;4.90;;
72439;SDS011;60446;50.752;4.352;2023-05-09T07:20:45;11.23;;;4.70;;
72439;SDS011;60446;50.752;4.352;2023-05-09T07:23:12;13.73;;;4.85;;
72439;SDS011;60446;50.752;4.352;2023-05-09T07:25:39;10.20;;;4.30;;
72439;SDS011;60446;50.752;4.352;2023-05-09T07:28:06;10.93;;;4.43;;
72439;SDS011;60446;50.752;4.352;2023-05-09T07:30:34;14.52;;;4.75;;
72439;SDS011;60446;50.752;4.352;2023-05-09T07:33:01;11.43;;;4.53;;
72439;SDS011;60446;50.752;4.352;2023-05-09T07:35:29;11.10;;;4.20;;
72439;SDS011;60446;50.752;4.352;2023-05-09T07:37:56;10.47;;;4.07;;
72439;SDS011;60446;50.752;4.352;2023-05-09T07:40:23;11.23;;;4.40;;
72439;SDS011;60446;50.752;4.352;2023-05-09T07:42:50;10.73;;;4.15;;
72439;SDS011;60446;50.752;4.352;2023-05-09T07:45:20;10.43;;;3.80;;
72439;SDS011;60446;50.752;4.352;2023-05-09T07:47:49;10.05;;;4.22;;
72439;SDS011;60446;50.752;4.352;2023-05-09T07:50:16;12.23;;;4.40;;
72439;SDS011;60446;50.752;4.352;2023-05-09T07:52:44;11.00;;;4.07;;
72439;SDS011;60446;50.752;4.352;2023-05-09T07:55:11;11.88;;;4.20;;
72439;SDS011;60446;50.752;4.352;2023-05-09T07:57:39;10.45;;;4.47;;
72439;SDS011;60446;50.752;4.352;2023-05-09T08:00:06;11.60;;;4.10;;
72439;SDS011;60446;50.752;4.352;2023-05-09T08:02:41;11.17;;;4.57;;
72439;SDS011;60446;50.752;4.352;2023-05-09T08:05:08;11.13;;;4.28;;
72439;SDS011;60446;50.752;4.352;2023-05-09T08:07:39;15.65;;;4.95;;
72439;SDS011;60446;50.752;4.352;2023-05-09T08:10:07;18.35;;;4.97;;
72439;SDS011;60446;50.752;4.352;2023-05-09T08:12:35;14.82;;;4.75;;
72439;SDS011;60446;50.752;4.352;2023-05-09T08:15:02;11.13;;;4.37;;
72439;SDS011;60446;50.752;4.352;2023-05-09T08:17:30;12.75;;;4.18;;
72439;SDS011;60446;50.752;4.352;2023-05-09T08:19:57;10.85;;;4.28;;
72439;SDS011;60446;50.752;4.352;2023-05-09T08:22:24;10.70;;;4.13;;
72439;SDS011;60446;50.752;4.352;2023-05-09T08:24:51;10.88;;;4.10;;
72439;SDS011;60446;50.752;4.352;2023-05-09T08:27:18;9.60;;;3.53;;
72439;SDS011;60446;50.752;4.352;2023-05-09T08:29:45;9.82;;;4.18;;
72439;SDS011;60446;50.752;4.352;2023-05-09T08:32:12;9.85;;;3.60;;
72439;SDS011;60446;50.752;4.352;2023-05-09T08:34:39;13.15;;;3.85;;
72439;SDS011;60446;50.752;4.352;2023-05-09T08:37:06;9.27;;;3.55;;
72439;SDS011;60446;50.752;4.352;2023-05-09T08:39:34;10.83;;;3.50;;
72439;SDS011;60446;50.752;4.352;2023-05-09T08:42:01;9.65;;;3.80;;
72439;SDS011;60446;50.752;4.352;2023-05-09T08:44:29;10.57;;;3.70;;
72439;SDS011;60446;50.752;4.352;2023-05-09T08:46:58;10.57;;;3.28;;
72439;SDS011;60446;50.752;4.352;2023-05-09T08:49:27;8.80;;;3.05;;
72439;SDS011;60446;50.752;4.352;2023-05-09T08:51:55;8.73;;;3.60;;
72439;SDS011;60446;50.752;4.352;2023-05-09T08:54:23;10.93;;;3.15;;
72439;SDS011;60446;50.752;4.352;2023-05-09T08:56:50;10.85;;;4.10;;
72439;SDS011;60446;50.752;4.352;2023-05-09T08:59:18;8.10;;;3.25;;
72439;SDS011;60446;50.752;4.352;2023-05-09T09:01:45;9.10;;;3.40;;
72439;SDS011;60446;50.752;4.352;2023-05-09T09:04:12;8.63;;;3.20;;
72439;SDS011;60446;50.752;4.352;2023-05-09T09:06:40;11.95;;;4.10;;
72439;SDS011;60446;50.752;4.352;2023-05-09T09:09:08;13.45;;;3.22;;
72439;SDS011;60446;50.752;4.352;2023-05-09T09:11:37;9.75;;;3.70;;
72439;SDS011;60446;50.752;4.352;2023-05-09T09:14:14;11.48;;;4.05;;
72439;SDS011;60446;50.752;4.352;2023-05-09T09:16:47;8.10;;;3.60;;
72439;SDS011;60446;50.752;4.352;2023-05-09T09:19:15;10.82;;;3.35;;
72439;SDS011;60446;50.752;4.352;2023-05-09T09:21:44;8.20;;;3.47;;
72439;SDS011;60446;50.752;4.352;2023-05-09T09:24:12;8.30;;;2.60;;
72439;SDS011;60446;50.752;4.352;2023-05-09T09:26:45;8.57;;;2.70;;
72439;SDS011;60446;50.752;4.352;2023-05-09T09:29:14;8.87;;;2.67;;
72439;SDS011;60446;50.752;4.352;2023-05-09T09:31:43;10.35;;;2.95;;
72439;SDS011;60446;50.752;4.352;2023-05-09T09:34:13;9.25;;;3.25;;
72439;SDS011;60446;50.752;4.352;2023-05-09T09:36:47;8.90;;;3.13;;
72439;SDS011;60446;50.752;4.352;2023-05-09T09:39:15;9.00;;;2.70;;
72439;SDS011;60446;50.752;4.352;2023-05-09T09:41:42;9.43;;;3.03;;
72439;SDS011;60446;50.752;4.352;2023-05-09T09:44:13;8.40;;;3.10;;
72439;SDS011;60446;50.752;4.352;2023-05-09T09:46:51;10.50;;;3.78;;
72439;SDS011;60446;50.752;4.352;2023-05-09T09:49:21;10.25;;;3.22;;
72439;SDS011;60446;50.752;4.352;2023-05-09T09:51:55;8.48;;;3.83;;
72439;SDS011;60446;50.752;4.352;2023-05-09T09:54:27;8.67;;;3.20;;
72439;SDS011;60446;50.752;4.352;2023-05-09T09:56:54;7.45;;;3.03;;
72439;SDS011;60446;50.752;4.352;2023-05-09T09:59:22;10.98;;;4.25;;
72439;SDS011;60446;50.752;4.352;2023-05-09T10:04:34;10.18;;;3.92;;
72439;SDS011;60446;50.752;4.352;2023-05-09T10:07:04;11.10;;;3.53;;
72439;SDS011;60446;50.752;4.352;2023-05-09T10:09:33;10.48;;;3.50;;
72439;SDS011;60446;50.752;4.352;2023-05-09T10:12:04;8.27;;;3.42;;
72439;SDS011;60446;50.752;4.352;2023-05-09T10:14:34;9.23;;;3.30;;
72439;SDS011;60446;50.752;4.352;2023-05-09T10:17:02;11.70;;;3.67;;
72439;SDS011;60446;50.752;4.352;2023-05-09T10:19:31;10.33;;;3.47;;
72439;SDS011;60446;50.752;4.352;2023-05-09T10:22:02;9.25;;;4.10;;
72439;SDS011;60446;50.752;4.352;2023-05-09T10:24:39;8.60;;;3.05;;
72439;SDS011;60446;50.752;4.352;2023-05-09T10:27:14;9.07;;;3.20;;
72439;SDS011;60446;50.752;4.352;2023-05-09T10:29:49;14.32;;;3.95;;
72439;SDS011;60446;50.752;4.352;2023-05-09T10:32:26;8.73;;;2.70;;
72439;SDS011;60446;50.752;4.352;2023-05-09T10:35:11;8.40;;;2.55;;
72439;SDS011;60446;50.752;4.352;2023-05-09T10:37:43;7.75;;;2.80;;
72439;SDS011;60446;50.752;4.352;2023-05-09T10:40:11;10.32;;;2.75;;
72439;SDS011;60446;50.752;4.352;2023-05-09T10:42:41;8.02;;;3.20;;
72439;SDS011;60446;50.752;4.352;2023-05-09T10:45:09;9.47;;;2.97;;
72439;SDS011;60446;50.752;4.352;2023-05-09T10:47:39;9.73;;;2.80;;
72439;SDS011;60446;50.752;4.352;2023-05-09T10:50:07;9.75;;;3.08;;
72439;SDS011;60446;50.752;4.352;2023-05-09T10:58:17;7.93;;;2.60;;
72439;SDS011;60446;50.752;4.352;2023-05-09T11:00:59;10.55;;;3.25;;
72439;SDS011;60446;50.752;4.352;2023-05-09T11:06:40;9.07;;;3.17;;
72439;SDS011;60446;50.752;4.352;2023-05-09T11:14:37;8.90;;;3.00;;
72439;SDS011;60446;50.752;4.352;2023-05-09T11:22:19;9.13;;;2.63;;
72439;SDS011;60446;50.752;4.352;2023-05-09T11:25:01;5.93;;;2.50;;
72439;SDS011;60446;50.752;4.352;2023-05-09T11:27:37;9.25;;;2.70;;
72439;SDS011;60446;50.752;4.352;2023-05-09T11:30:12;11.00;;;2.85;;
72439;SDS011;60446;50.752;4.352;2023-05-09T11:32:45;10.32;;;3.45;;
72439;SDS011;60446;50.752;4.352;2023-05-09T11:35:17;10.55;;;3.03;;
72439;SDS011;60446;50.752;4.352;2023-05-09T11:40:21;9.10;;;3.22;;
72439;SDS011;60446;50.752;4.352;2023-05-09T11:42:52;7.25;;;2.58;;
72439;SDS011;60446;50.752;4.352;2023-05-09T11:45:31;9.13;;;2.90;;
72439;SDS011;60446;50.752;4.352;2023-05-09T11:47:59;8.35;;;3.28;;
72439;SDS011;60446;50.752;4.352;2023-05-09T11:50:26;6.20;;;2.37;;
72439;SDS011;60446;50.752;4.352;2023-05-09T11:52:54;8.35;;;2.85;;
72439;SDS011;60446;50.752;4.352;2023-05-09T11:55:21;8.15;;;2.47;;
72439;SDS011;60446;50.752;4.352;2023-05-09T11:57:51;6.85;;;2.67;;
72439;SDS011;60446;50.752;4.352;2023-05-09T12:00:20;7.50;;;2.45;;
72439;SDS011;60446;50.752;4.352;2023-05-09T12:02:50;7.57;;;2.33;;
72439;SDS011;60446;50.752;4.352;2023-05-09T12:05:19;4.88;;;1.65;;
72439;SDS011;60446;50.752;4.352;2023-05-09T12:07:48;7.18;;;1.60;;
72439;SDS011;60446;50.752;4.352;2023-05-09T12:10:19;5.70;;;1.90;;
72439;SDS011;60446;50.752;4.352;2023-05-09T12:12:51;4.88;;;1.80;;
72439;SDS011;60446;50.752;4.352;2023-05-09T12:15:22;6.00;;;1.77;;
72439;SDS011;60446;50.752;4.352;2023-05-09T12:17:59;4.88;;;1.58;;
72439;SDS011;60446;50.752;4.352;2023-05-09T12:20:43;7.20;;;1.88;;
72439;SDS011;60446;50.752;4.352;2023-05-09T12:23:15;5.85;;;1.83;;
72439;SDS011;60446;50.752;4.352;2023-05-09T12:28:14;4.00;;;1.10;;
72439;SDS011;60446;50.752;4.352;2023-05-09T12:30:42;6.45;;;1.42;;
72439;SDS011;60446;50.752;4.352;2023-05-09T12:33:10;5.78;;;1.45;;
72439;SDS011;60446;50.752;4.352;2023-05-09T12:35:38;4.53;;;0.93;;
72439;SDS011;60446;50.752;4.352;2023-05-09T12:38:05;7.70;;;1.45;;
72439;SDS011;60446;50.752;4.352;2023-05-09T12:40:33;3.50;;;1.00;;
72439;SDS011;60446;50.752;4.352;2023-05-09T12:43:00;5.32;;;0.98;;
72439;SDS011;60446;50.752;4.352;2023-05-09T12:45:30;4.32;;;1.17;;
72439;SDS011;60446;50.752;4.352;2023-05-09T12:47:59;4.57;;;1.23;;
72439;SDS011;60446;50.752;4.352;2023-05-09T12:50:34;4.10;;;0.85;;
72439;SDS011;60446;50.752;4.352;2023-05-09T12:53:01;4.43;;;1.00;;
72439;SDS011;60446;50.752;4.352;2023-05-09T12:55:37;4.70;;;1.10;;
72439;SDS011;60446;50.752;4.352;2023-05-09T12:58:06;5.15;;;1.02;;
72439;SDS011;60446;50.752;4.352;2023-05-09T13:00:43;5.97;;;1.10;;
72439;SDS011;60446;50.752;4.352;2023-05-09T13:03:21;8.23;;;1.05;;
72439;SDS011;60446;50.752;4.352;2023-05-09T13:05:54;5.00;;;1.20;;
72439;SDS011;60446;50.752;4.352;2023-05-09T13:08:23;4.22;;;1.00;;
72439;SDS011;60446;50.752;4.352;2023-05-09T13:10:51;4.40;;;1.13;;
72439;SDS011;60446;50.752;4.352;2023-05-09T13:13:33;5.55;;;0.82;;
72439;SDS011;60446;50.752;4.352;2023-05-09T13:16:02;5.00;;;1.13;;
72439;SDS011;60446;50.752;4.352;2023-05-09T13:18:32;5.23;;;1.27;;
72439;SDS011;60446;50.752;4.352;2023-05-09T13:20:59;5.40;;;1.30;;
72439;SDS011;60446;50.752;4.352;2023-05-09T13:23:26;4.88;;;1.20;;
72439;SDS011;60446;50.752;4.352;2023-05-09T13:25:53;4.15;;;0.90;;
72439;SDS011;60446;50.752;4.352;2023-05-09T13:28:20;3.10;;;0.73;;
72439;SDS011;60446;50.752;4.352;2023-05-09T13:30:47;4.00;;;0.90;;
72439;SDS011;60446;50.752;4.352;2023-05-09T13:33:15;3.45;;;0.95;;
72439;SDS011;60446;50.752;4.352;2023-05-09T13:35:51;4.00;;;0.93;;
72439;SDS011;60446;50.752;4.352;2023-05-09T13:38:18;4.43;;;0.93;;
72439;SDS011;60446;50.752;4.352;2023-05-09T13:40:46;4.38;;;1.10;;
72439;SDS011;60446;50.752;4.352;2023-05-09T13:43:13;4.10;;;1.00;;
72439;SDS011;60446;50.752;4.352;2023-05-09T13:45:40;3.25;;;0.68;;
72439;SDS011;60446;50.752;4.352;2023-05-09T13:48:07;3.75;;;1.10;;
72439;SDS011;60446;50.752;4.352;2023-05-09T13:50:34;5.68;;;0.75;;
72439;SDS011;60446;50.752;4.352;2023-05-09T13:53:01;4.20;;;1.08;;
72439;SDS011;60446;50.752;4.352;2023-05-09T13:55:29;5.03;;;0.90;;
72439;SDS011;60446;50.752;4.352;2023-05-09T13:57:56;4.70;;;1.10;;
72439;SDS011;60446;50.752;4.352;2023-05-09T14:00:23;4.13;;;1.00;;
72439;SDS011;60446;50.752;4.352;2023-05-09T14:02:51;4.70;;;0.80;;
72439;SDS011;60446;50.752;4.352;2023-05-09T14:05:19;3.85;;;1.00;;
72439;SDS011;60446;50.752;4.352;2023-05-09T14:07:46;3.77;;;0.90;;
72439;SDS011;60446;50.752;4.352;2023-05-09T14:10:13;4.55;;;0.90;;
72439;SDS011;60446;50.752;4.352;2023-05-09T14:12:41;4.47;;;1.50;;
72439;SDS011;60446;50.752;4.352;2023-05-09T14:15:12;5.90;;;1.60;;
72439;SDS011;60446;50.752;4.352;2023-05-09T14:17:39;4.47;;;1.20;;
72439;SDS011;60446;50.752;4.352;2023-05-09T14:20:08;4.50;;;1.23;;
72439;SDS011;60446;50.752;4.352;2023-05-09T14:22:36;4.88;;;1.33;;
72439;SDS011;60446;50.752;4.352;2023-05-09T14:25:03;5.32;;;1.38;;
72439;SDS011;60446;50.752;4.352;2023-05-09T14:27:31;4.93;;;1.10;;
72439;SDS011;60446;50.752;4.352;2023-05-09T14:30:05;4.53;;;1.20;;
72439;SDS011;60446;50.752;4.352;2023-05-09T14:32:33;5.03;;;1.57;;
72439;SDS011;60446;50.752;4.352;2023-05-09T14:35:01;5.35;;;1.40;;
72439;SDS011;60446;50.752;4.352;2023-05-09T14:37:28;5.22;;;1.40;;
72439;SDS011;60446;50.752;4.352;2023-05-09T14:39:55;5.10;;;1.70;;
72439;SDS011;60446;50.752;4.352;2023-05-09T14:42:22;5.15;;;1.30;;
72439;SDS011;60446;50.752;4.352;2023-05-09T14:44:49;5.90;;;1.90;;
72439;SDS011;60446;50.752;4.352;2023-05-09T14:47:17;4.55;;;1.20;;
72439;SDS011;60446;50.752;4.352;2023-05-09T14:49:44;5.82;;;1.70;;
72439;SDS011;60446;50.752;4.352;2023-05-09T14:52:11;6.60;;;1.48;;
72439;SDS011;60446;50.752;4.352;2023-05-09T14:54:39;5.05;;;1.35;;
72439;SDS011;60446;50.752;4.352;2023-05-09T14:57:07;5.13;;;1.50;;
72439;SDS011;60446;50.752;4.352;2023-05-09T14:59:34;4.63;;;1.40;;
72439;SDS011;60446;50.752;4.352;2023-05-09T15:02:02;5.53;;;1.55;;
72439;SDS011;60446;50.752;4.352;2023-05-09T15:04:29;5.50;;;1.70;;
72439;SDS011;60446;50.752;4.352;2023-05-09T15:06:57;6.32;;;1.85;;
72439;SDS011;60446;50.752;4.352;2023-05-09T15:09:25;5.37;;;1.60;;
72439;SDS011;60446;50.752;4.352;2023-05-09T15:11:52;5.57;;;1.80;;
72439;SDS011;60446;50.752;4.352;2023-05-09T15:14:20;5.25;;;1.60;;
72439;SDS011;60446;50.752;4.352;2023-05-09T15:16:47;7.07;;;1.83;;
72439;SDS011;60446;50.752;4.352;2023-05-09T15:19:17;6.45;;;1.60;;
72439;SDS011;60446;50.752;4.352;2023-05-09T15:21:44;4.97;;;1.53;;
72439;SDS011;60446;50.752;4.352;2023-05-09T15:24:12;5.40;;;1.58;;
72439;SDS011;60446;50.752;4.352;2023-05-09T15:26:39;6.13;;;1.80;;
72439;SDS011;60446;50.752;4.352;2023-05-09T15:29:06;7.03;;;1.80;;